createdAt,value
2023-04-27T00:00:19.268Z,62.06
2023-04-27T00:02:46.826Z,61.63
2023-04-27T00:05:14.220Z,62.42
2023-04-27T00:07:41.832Z,61.73
2023-04-27T00:10:09.402Z,61.88
2023-04-27T00:12:36.661Z,61.64
2023-04-27T00:15:04.597Z,62.07
2023-04-27T00:17:32.496Z,61.54
2023-04-27T00:20:00.674Z,62.06
2023-04-27T00:22:27.846Z,62.54
2023-04-27T00:24:54.875Z,62.38
2023-04-27T00:27:22.056Z,62.37
2023-04-27T00:29:49.130Z,62.34
2023-04-27T00:32:16.669Z,62.10
2023-04-27T00:34:43.874Z,62.54
2023-04-27T00:37:13.009Z,62.09
2023-04-27T00:39:40.093Z,62.00
2023-04-27T00:42:11.710Z,61.74
2023-04-27T00:44:39.944Z,61.97
2023-04-27T00:47:07.332Z,62.32
2023-04-27T00:49:34.502Z,61.56
2023-04-27T00:52:01.660Z,61.48
2023-04-27T00:54:29.120Z,61.46
2023-04-27T00:56:56.402Z,61.60
2023-04-27T00:59:23.479Z,61.57
2023-04-27T01:01:52.781Z,62.00
2023-04-27T01:04:20.369Z,62.21
2023-04-27T01:06:48.030Z,62.40
2023-04-27T01:09:16.633Z,61.92
2023-04-27T01:11:43.588Z,61.67
2023-04-27T01:14:10.656Z,62.19
2023-04-27T01:16:38.121Z,62.46
2023-04-27T01:19:05.327Z,62.45
2023-04-27T01:21:32.607Z,62.50
2023-04-27T01:23:59.704Z,61.93
2023-04-27T01:26:27.031Z,62.36
2023-04-27T01:28:54.046Z,61.79
2023-04-27T01:31:21.266Z,62.25
2023-04-27T01:33:48.614Z,62.60
2023-04-27T01:36:15.635Z,62.22
2023-04-27T01:38:43.164Z,61.89
2023-04-27T01:41:13.371Z,62.23
2023-04-27T01:43:43.853Z,62.04
2023-04-27T01:46:14.491Z,62.31
2023-04-27T01:48:41.960Z,62.42
2023-04-27T01:51:08.957Z,62.03
2023-04-27T01:53:36.062Z,61.68
2023-04-27T01:56:03.810Z,61.71
2023-04-27T01:58:33.251Z,62.38
2023-04-27T02:01:00.472Z,62.13
2023-04-27T02:03:29.440Z,62.08
2023-04-27T02:05:56.518Z,61.82
2023-04-27T02:08:23.574Z,61.80
2023-04-27T02:10:50.864Z,62.43
2023-04-27T02:13:17.763Z,61.85
2023-04-27T02:15:44.879Z,61.71
2023-04-27T02:18:12.277Z,61.53
2023-04-27T02:20:39.229Z,61.68
2023-04-27T02:23:06.879Z,61.48
2023-04-27T02:25:37.006Z,61.25
2023-04-27T02:28:04.415Z,61.45
2023-04-27T02:30:32.214Z,61.04
2023-04-27T02:33:02.226Z,60.89
2023-04-27T02:35:33.426Z,61.06
2023-04-27T02:38:00.877Z,61.03
2023-04-27T02:40:28.502Z,60.69
2023-04-27T02:42:55.699Z,60.81
2023-04-27T02:45:22.638Z,60.17
2023-04-27T02:47:51.096Z,60.68
2023-04-27T02:50:18.160Z,59.81
2023-04-27T02:52:45.180Z,59.98
2023-04-27T02:55:12.227Z,60.02
2023-04-27T02:57:39.476Z,60.36
2023-04-27T03:00:09.293Z,59.91
2023-04-27T03:02:36.724Z,60.25
2023-04-27T03:05:04.659Z,60.24
2023-04-27T03:07:32.244Z,59.85
2023-04-27T03:09:59.325Z,59.78
2023-04-27T03:12:26.679Z,59.95
2023-04-27T03:14:53.819Z,59.83
2023-04-27T03:17:20.897Z,59.56
2023-04-27T03:19:49.378Z,60.30
2023-04-27T03:22:16.549Z,59.66
2023-04-27T03:24:43.521Z,59.85
2023-04-27T03:27:10.533Z,59.51
2023-04-27T03:29:38.092Z,59.05
2023-04-27T03:32:05.660Z,59.38
2023-04-27T03:34:33.132Z,58.93
2023-04-27T03:37:00.346Z,59.14
2023-04-27T03:39:27.950Z,59.08
2023-04-27T03:41:54.967Z,59.12
2023-04-27T03:44:22.187Z,59.35
2023-04-27T03:46:49.254Z,59.38
2023-04-27T03:49:16.759Z,58.76
2023-04-27T03:51:44.191Z,59.35
2023-04-27T03:54:11.708Z,58.71
2023-04-27T03:56:39.023Z,58.99
2023-04-27T03:59:06.581Z,59.00
2023-04-27T04:01:37.318Z,58.87
2023-04-27T04:04:04.686Z,58.85
2023-04-27T04:06:32.468Z,59.20
2023-04-27T04:08:59.530Z,59.00
2023-04-27T04:11:27.620Z,58.98
2023-04-27T04:13:57.624Z,59.19
2023-04-27T04:16:24.774Z,58.69
2023-04-27T04:18:53.252Z,58.73
2023-04-27T04:21:21.260Z,59.15
2023-04-27T04:23:48.864Z,58.90
2023-04-27T04:26:16.799Z,58.68
2023-04-27T04:28:45.103Z,58.45
2023-04-27T04:31:15.153Z,58.34
2023-04-27T04:33:42.127Z,58.18
2023-04-27T04:36:11.066Z,58.04
2023-04-27T04:38:38.371Z,58.05
2023-04-27T04:41:07.439Z,57.76
2023-04-27T04:43:34.655Z,57.39
2023-04-27T04:46:04.933Z,57.57
2023-04-27T04:48:32.475Z,57.33
2023-04-27T04:50:59.653Z,57.27
2023-04-27T04:53:27.022Z,57.01
2023-04-27T04:55:56.153Z,57.02
2023-04-27T04:58:23.241Z,57.00
2023-04-27T05:00:50.237Z,56.85
2023-04-27T05:03:17.834Z,56.59
2023-04-27T05:05:45.010Z,56.34
2023-04-27T05:08:12.019Z,56.25
2023-04-27T05:10:39.107Z,55.97
2023-04-27T05:13:07.277Z,55.57
2023-04-27T05:15:34.590Z,55.37
2023-04-27T05:18:01.657Z,55.21
2023-04-27T05:20:28.639Z,54.59
2023-04-27T05:22:55.807Z,54.26
2023-04-27T05:25:22.705Z,54.31
2023-04-27T05:27:49.682Z,53.83
2023-04-27T05:30:16.946Z,53.78
2023-04-27T05:32:44.210Z,53.38
2023-04-27T05:35:11.537Z,53.33
2023-04-27T05:37:38.474Z,53.04
2023-04-27T05:40:07.564Z,52.85
2023-04-27T05:42:34.700Z,52.76
2023-04-27T05:45:02.817Z,52.66
2023-04-27T05:47:31.107Z,52.47
2023-04-27T05:49:58.092Z,52.29
2023-04-27T05:52:30.889Z,52.01
2023-04-27T05:55:01.354Z,51.91
2023-04-27T05:57:30.293Z,51.12
2023-04-27T05:59:57.369Z,50.97
2023-04-27T06:02:24.481Z,50.54
2023-04-27T06:04:51.839Z,50.45
2023-04-27T06:07:18.763Z,50.25
2023-04-27T06:09:45.942Z,49.96
2023-04-27T06:12:12.931Z,49.68
2023-04-27T06:14:39.962Z,49.33
2023-04-27T06:17:07.104Z,49.22
2023-04-27T06:19:34.136Z,49.26
2023-04-27T06:22:01.248Z,49.18
2023-04-27T06:24:28.856Z,49.00
2023-04-27T06:26:58.865Z,48.95
2023-04-27T06:29:25.921Z,48.80
2023-04-27T06:31:52.919Z,48.70
2023-04-27T06:34:19.962Z,48.08
2023-04-27T06:36:47.093Z,47.75
2023-04-27T06:39:14.461Z,47.53
2023-04-27T06:41:41.718Z,47.24
2023-04-27T06:44:18.838Z,47.15
2023-04-27T06:46:45.975Z,46.84
2023-04-27T06:49:13.149Z,46.61
2023-04-27T06:51:40.251Z,45.83
2023-04-27T06:54:07.848Z,45.46
2023-04-27T06:56:34.901Z,45.22
2023-04-27T06:59:01.856Z,44.77
2023-04-27T07:01:29.030Z,44.61
2023-04-27T07:03:56.310Z,44.43
2023-04-27T07:06:25.616Z,44.52
2023-04-27T07:08:52.757Z,44.32
2023-04-27T07:11:19.916Z,44.39
2023-04-27T07:13:47.538Z,44.33
2023-04-27T07:16:15.820Z,44.12
2023-04-27T07:18:44.285Z,44.08
2023-04-27T07:21:11.543Z,44.17
2023-04-27T07:23:41.289Z,43.87
2023-04-27T07:26:09.029Z,44.20
2023-04-27T07:28:36.271Z,44.09
2023-04-27T07:31:06.720Z,43.74
2023-04-27T07:33:34.581Z,44.25
2023-04-27T07:36:02.828Z,44.25
2023-04-27T07:38:31.409Z,44.35
2023-04-27T07:41:05.811Z,44.23
2023-04-27T07:43:32.857Z,44.62
2023-04-27T07:45:59.933Z,44.95
2023-04-27T07:48:28.865Z,45.21
2023-04-27T07:50:56.013Z,45.05
2023-04-27T07:53:23.041Z,44.96
2023-04-27T07:55:49.978Z,45.16
2023-04-27T07:58:17.212Z,45.07
2023-04-27T08:00:44.245Z,44.78
2023-04-27T08:03:11.275Z,44.62
2023-04-27T08:05:39.423Z,44.49
2023-04-27T08:08:07.041Z,44.45
2023-04-27T08:10:34.163Z,44.26
2023-04-27T08:13:01.396Z,44.50
2023-04-27T08:15:28.481Z,44.39
2023-04-27T08:17:55.613Z,44.66
2023-04-27T08:20:22.612Z,44.62
2023-04-27T08:22:51.392Z,44.62
2023-04-27T08:25:18.500Z,44.56
2023-04-27T08:27:47.055Z,44.52
2023-04-27T08:30:14.354Z,44.48
2023-04-27T08:32:41.792Z,44.44
2023-04-27T08:35:09.295Z,44.52
2023-04-27T08:37:36.356Z,44.18
2023-04-27T08:40:06.255Z,43.36
2023-04-27T08:42:33.320Z,43.01
2023-04-27T08:45:00.289Z,42.79
2023-04-27T08:47:41.136Z,42.70
2023-04-27T08:50:10.533Z,42.49
2023-04-27T08:52:37.912Z,42.36
2023-04-27T08:55:05.591Z,42.27
2023-04-27T08:57:32.613Z,42.24
2023-04-27T09:00:00.917Z,42.17
2023-04-27T09:02:29.817Z,41.98
2023-04-27T09:04:57.331Z,42.20
2023-04-27T09:07:26.165Z,41.96
2023-04-27T09:10:03.123Z,41.63
2023-04-27T09:12:30.575Z,41.96
2023-04-27T09:14:57.985Z,41.71
2023-04-27T09:17:28.018Z,41.49
2023-04-27T09:20:13.607Z,40.35
2023-04-27T09:22:48.715Z,40.34
2023-04-27T09:25:32.595Z,40.14
2023-04-27T09:28:00.778Z,40.47
2023-04-27T09:30:29.986Z,40.46
2023-04-27T09:33:04.693Z,40.60
2023-04-27T09:35:33.694Z,40.71
2023-04-27T09:38:01.317Z,40.85
2023-04-27T09:40:32.202Z,40.89
2023-04-27T09:43:04.500Z,40.73
2023-04-27T09:45:34.121Z,40.15
2023-04-27T09:48:01.951Z,40.27
2023-04-27T09:50:29.318Z,40.25
2023-04-27T09:52:57.270Z,40.23
2023-04-27T09:55:39.750Z,40.23
2023-04-27T09:58:24.273Z,40.47
2023-04-27T10:01:19.793Z,39.77
2023-04-27T10:04:09.986Z,39.84
2023-04-27T10:06:52.680Z,39.69
2023-04-27T10:09:23.979Z,39.21
2023-04-27T10:11:52.503Z,39.44
2023-04-27T10:14:21.871Z,38.93
2023-04-27T10:16:54.183Z,38.45
2023-04-27T10:19:23.750Z,38.54
2023-04-27T10:22:03.430Z,37.73
2023-04-27T10:24:44.361Z,37.85
2023-04-27T10:27:16.127Z,38.22
2023-04-27T10:29:44.916Z,37.79
2023-04-27T10:32:19.110Z,37.63
2023-04-27T10:34:48.337Z,37.52
2023-04-27T10:37:16.001Z,37.58
2023-04-27T10:39:48.973Z,37.47
2023-04-27T10:42:30.574Z,37.31
2023-04-27T10:44:58.421Z,37.82
2023-04-27T10:47:36.125Z,37.79
2023-04-27T10:50:04.899Z,38.11
2023-04-27T10:52:31.971Z,38.39
2023-04-27T10:54:59.097Z,38.34
2023-04-27T10:57:26.971Z,38.72
2023-04-27T10:59:55.755Z,38.83
2023-04-27T11:02:28.429Z,38.90
2023-04-27T11:04:56.721Z,39.55
2023-04-27T11:07:28.409Z,40.03
2023-04-27T11:09:56.150Z,40.38
2023-04-27T11:12:24.278Z,40.66
2023-04-27T11:14:57.862Z,40.93
2023-04-27T11:17:32.568Z,41.19
2023-04-27T11:19:59.586Z,40.74
2023-04-27T11:22:27.048Z,40.32
2023-04-27T11:24:54.157Z,39.94
2023-04-27T11:27:23.486Z,39.25
2023-04-27T11:29:51.003Z,38.97
2023-04-27T11:32:23.137Z,38.34
2023-04-27T11:34:55.191Z,38.23
2023-04-27T11:37:26.044Z,37.96
2023-04-27T11:39:57.641Z,37.66
2023-04-27T11:42:26.368Z,37.62
2023-04-27T11:45:00.333Z,37.31
2023-04-27T11:47:30.532Z,37.22
2023-04-27T11:50:00.013Z,37.17
2023-04-27T11:52:32.138Z,36.69
2023-04-27T11:55:00.851Z,36.90
2023-04-27T11:57:30.111Z,37.09
2023-04-27T12:00:02.567Z,37.04
2023-04-27T12:02:42.556Z,36.97
2023-04-27T12:05:10.257Z,36.66
2023-04-27T12:07:37.512Z,36.34
2023-04-27T12:10:05.541Z,35.94
2023-04-27T12:12:33.603Z,35.50
2023-04-27T12:15:00.697Z,35.08
2023-04-27T12:17:27.814Z,35.18
2023-04-27T12:19:54.815Z,34.45
2023-04-27T12:22:21.875Z,34.01
2023-04-27T12:24:48.795Z,33.21
2023-04-27T12:27:16.222Z,32.46
2023-04-27T12:29:43.227Z,31.46
2023-04-27T12:32:10.347Z,30.76
2023-04-27T12:34:39.351Z,29.89
2023-04-27T12:37:06.822Z,28.91
2023-04-27T12:39:34.460Z,27.82
2023-04-27T12:42:02.549Z,27.01
2023-04-27T12:44:29.700Z,26.34
2023-04-27T12:46:57.105Z,26.13
2023-04-27T12:49:24.261Z,25.71
2023-04-27T12:51:53.001Z,24.96
2023-04-27T12:54:20.248Z,24.68
2023-04-27T12:56:47.313Z,24.43
2023-04-27T12:59:14.614Z,24.30
2023-04-27T13:01:41.740Z,24.33
2023-04-27T13:04:09.394Z,23.74
2023-04-27T13:06:36.569Z,23.41
2023-04-27T13:09:03.918Z,22.84
2023-04-27T13:11:31.317Z,23.34
2023-04-27T13:13:59.032Z,23.63
2023-04-27T13:16:26.657Z,24.52
2023-04-27T13:18:55.654Z,25.12
2023-04-27T13:21:23.277Z,25.52
2023-04-27T13:23:51.305Z,25.54
2023-04-27T13:26:18.256Z,25.66
2023-04-27T13:28:45.310Z,25.95
2023-04-27T13:31:12.540Z,26.59
2023-04-27T13:33:42.273Z,26.90
2023-04-27T13:36:10.536Z,27.65
2023-04-27T13:38:37.688Z,28.23
2023-04-27T13:41:05.229Z,28.86
2023-04-27T13:43:32.522Z,29.30
2023-04-27T13:46:01.679Z,29.38
2023-04-27T13:48:29.526Z,28.85
2023-04-27T13:50:56.735Z,28.06
2023-04-27T13:53:26.987Z,27.58
2023-04-27T13:55:55.272Z,27.81
2023-04-27T13:58:25.594Z,28.40
2023-04-27T14:00:53.614Z,28.62
2023-04-27T14:03:22.767Z,28.22
2023-04-27T14:05:51.478Z,27.23
2023-04-27T14:08:19.127Z,26.61
2023-04-27T14:10:46.860Z,26.14
2023-04-27T14:13:14.421Z,25.31
2023-04-27T14:15:42.145Z,24.58
2023-04-27T14:18:09.828Z,24.82
2023-04-27T14:20:38.194Z,25.29
2023-04-27T14:23:06.341Z,25.33
2023-04-27T14:25:34.714Z,25.81
2023-04-27T14:28:04.383Z,25.63
2023-04-27T14:30:35.306Z,25.00
2023-04-27T14:33:03.348Z,24.58
2023-04-27T14:35:30.603Z,24.19
2023-04-27T14:38:02.370Z,24.13
2023-04-27T14:40:30.647Z,24.01
2023-04-27T14:43:01.355Z,23.79
2023-04-27T14:45:36.692Z,23.79
2023-04-27T14:48:07.116Z,23.45
2023-04-27T14:50:34.300Z,23.99
2023-04-27T14:53:01.257Z,24.43
2023-04-27T14:55:28.373Z,24.48
2023-04-27T14:57:55.343Z,24.27
2023-04-27T15:00:22.405Z,23.89
2023-04-27T15:02:49.434Z,23.72
2023-04-27T15:05:16.516Z,23.43
2023-04-27T15:07:43.510Z,23.14
2023-04-27T15:10:10.908Z,23.33
2023-04-27T15:12:37.954Z,23.01
2023-04-27T15:15:07.340Z,23.07
2023-04-27T15:17:35.866Z,22.81
2023-04-27T15:20:02.924Z,23.07
2023-04-27T15:22:30.572Z,23.11
2023-04-27T15:24:57.878Z,23.40
2023-04-27T15:27:27.218Z,23.19
2023-04-27T15:29:56.836Z,23.55
2023-04-27T15:32:28.045Z,23.54
2023-04-27T15:34:55.111Z,23.44
2023-04-27T15:37:22.087Z,23.37
2023-04-27T15:39:49.343Z,23.72
2023-04-27T15:42:16.345Z,23.47
2023-04-27T15:44:43.686Z,23.82
2023-04-27T15:47:10.739Z,23.85
2023-04-27T15:49:42.766Z,24.15
2023-04-27T15:52:16.956Z,24.15
2023-04-27T15:54:44.448Z,24.35
2023-04-27T15:57:11.377Z,24.42
2023-04-27T15:59:38.331Z,24.43
2023-04-27T16:02:05.248Z,24.66
2023-04-27T16:04:32.217Z,24.85
2023-04-27T16:06:59.348Z,24.94
2023-04-27T16:09:26.313Z,25.18
2023-04-27T16:11:53.249Z,26.12
2023-04-27T16:14:20.178Z,26.50
2023-04-27T16:16:47.217Z,27.04
2023-04-27T16:19:14.599Z,27.76
2023-04-27T16:21:42.917Z,28.45
2023-04-27T16:24:09.916Z,28.42
2023-04-27T16:26:38.202Z,29.09
2023-04-27T16:29:05.238Z,29.77
2023-04-27T16:31:32.324Z,30.58
2023-04-27T16:33:59.335Z,31.06
2023-04-27T16:36:26.205Z,31.78
2023-04-27T16:38:53.134Z,32.24
2023-04-27T16:41:20.060Z,32.75
2023-04-27T16:43:47.073Z,33.15
2023-04-27T16:46:15.419Z,33.50
2023-04-27T16:48:42.554Z,33.97
2023-04-27T16:51:10.749Z,34.43
2023-04-27T16:53:37.835Z,34.57
2023-04-27T16:56:05.288Z,34.93
2023-04-27T16:58:36.327Z,35.23
2023-04-27T17:01:03.554Z,35.45
2023-04-27T17:03:30.948Z,36.03
2023-04-27T17:05:58.025Z,36.21
2023-04-27T17:08:25.369Z,36.45
2023-04-27T17:10:53.115Z,36.73
2023-04-27T17:13:20.188Z,37.24
2023-04-27T17:15:47.347Z,37.47
2023-04-27T17:18:14.531Z,37.75
2023-04-27T17:20:42.360Z,37.92
2023-04-27T17:23:09.377Z,38.29
2023-04-27T17:25:37.228Z,38.71
2023-04-27T17:28:04.284Z,38.77
2023-04-27T17:30:31.452Z,39.08
2023-04-27T17:32:58.570Z,39.01
2023-04-27T17:35:27.308Z,39.39
2023-04-27T17:37:54.782Z,39.31
2023-04-27T17:40:22.852Z,39.73
2023-04-27T17:42:50.285Z,39.96
2023-04-27T17:45:17.203Z,40.24
2023-04-27T17:47:44.245Z,40.16
2023-04-27T17:50:11.582Z,40.59
2023-04-27T17:52:39.051Z,40.79
2023-04-27T17:55:06.278Z,40.83
2023-04-27T17:57:33.862Z,41.12
2023-04-27T18:00:02.172Z,41.54
2023-04-27T18:02:37.173Z,41.37
2023-04-27T18:05:04.892Z,41.44
2023-04-27T18:07:34.210Z,41.66
2023-04-27T18:10:01.156Z,41.86
2023-04-27T18:12:28.569Z,42.33
2023-04-27T18:14:55.913Z,42.12
2023-04-27T18:17:22.923Z,42.28
2023-04-27T18:20:00.856Z,42.58
2023-04-27T18:22:38.577Z,42.68
2023-04-27T18:25:07.037Z,42.75
2023-04-27T18:27:34.093Z,43.23
2023-04-27T18:30:01.604Z,43.28
2023-04-27T18:32:30.523Z,43.33
2023-04-27T18:34:57.664Z,43.43
2023-04-27T18:37:24.725Z,43.44
2023-04-27T18:39:52.870Z,43.58
2023-04-27T18:42:20.314Z,44.04
2023-04-27T18:44:48.313Z,44.02
2023-04-27T18:47:17.732Z,43.85
2023-04-27T18:49:44.793Z,44.02
2023-04-27T18:52:11.790Z,44.40
2023-04-27T18:54:39.065Z,44.47
2023-04-27T18:57:16.743Z,45.51
2023-04-27T18:59:48.795Z,45.30
2023-04-27T19:02:15.875Z,45.01
2023-04-27T19:04:48.959Z,44.97
2023-04-27T19:07:31.519Z,44.80
2023-04-27T19:10:00.577Z,45.08
2023-04-27T19:12:27.711Z,45.25
2023-04-27T19:14:54.749Z,45.17
2023-04-27T19:17:22.365Z,45.28
2023-04-27T19:19:50.058Z,45.48
2023-04-27T19:22:17.070Z,45.76
2023-04-27T19:24:44.141Z,45.92
2023-04-27T19:27:11.824Z,46.01
2023-04-27T19:29:51.144Z,46.73
2023-04-27T19:32:19.604Z,46.03
2023-04-27T19:34:47.936Z,46.01
2023-04-27T19:37:16.157Z,46.15
2023-04-27T19:39:43.141Z,46.24
2023-04-27T19:42:10.136Z,46.35
2023-04-27T19:44:39.321Z,46.47
2023-04-27T19:47:06.820Z,46.32
2023-04-27T19:49:33.924Z,46.73
2023-04-27T19:52:01.063Z,46.41
2023-04-27T19:54:29.769Z,46.63
2023-04-27T19:56:56.889Z,46.33
2023-04-27T19:59:23.992Z,46.30
2023-04-27T20:01:51.171Z,46.70
2023-04-27T20:04:18.913Z,46.75
2023-04-27T20:06:47.000Z,46.75
2023-04-27T20:09:14.217Z,46.76
2023-04-27T20:11:41.294Z,47.01
2023-04-27T20:14:08.212Z,46.87
2023-04-27T20:16:35.207Z,46.99
2023-04-27T20:19:02.148Z,47.25
2023-04-27T20:21:29.444Z,47.16
2023-04-27T20:23:56.468Z,47.13
2023-04-27T20:26:24.587Z,47.24
2023-04-27T20:28:51.538Z,47.37
2023-04-27T20:31:18.540Z,47.38
2023-04-27T20:33:45.491Z,47.44
2023-04-27T20:36:17.038Z,47.57
2023-04-27T20:38:45.819Z,47.47
2023-04-27T20:41:13.937Z,47.58
2023-04-27T20:43:41.149Z,47.64
2023-04-27T20:46:08.425Z,47.88
2023-04-27T20:48:35.725Z,48.10
2023-04-27T20:51:02.927Z,47.90
2023-04-27T20:53:30.066Z,48.17
2023-04-27T20:55:57.220Z,48.28
2023-04-27T20:58:24.204Z,48.36
2023-04-27T21:00:51.594Z,48.19
2023-04-27T21:03:18.774Z,48.21
2023-04-27T21:05:46.052Z,48.61
2023-04-27T21:08:13.070Z,48.51
2023-04-27T21:10:40.047Z,48.76
2023-04-27T21:13:07.336Z,48.90
2023-04-27T21:15:34.380Z,48.93
2023-04-27T21:18:01.399Z,48.86
2023-04-27T21:20:28.269Z,48.90
2023-04-27T21:22:55.507Z,48.84
2023-04-27T21:25:23.825Z,48.87
2023-04-27T21:27:51.139Z,49.10
2023-04-27T21:30:18.117Z,49.16
2023-04-27T21:32:45.114Z,49.29
2023-04-27T21:35:12.324Z,49.37
2023-04-27T21:37:39.296Z,49.46
2023-04-27T21:40:07.089Z,49.68
2023-04-27T21:42:34.152Z,49.39
2023-04-27T21:45:01.237Z,49.67
2023-04-27T21:47:28.308Z,49.88
2023-04-27T21:49:55.812Z,50.03
2023-04-27T21:52:22.698Z,49.96
2023-04-27T21:54:49.817Z,50.02
2023-04-27T21:57:19.951Z,50.04
2023-04-27T21:59:47.148Z,50.30
2023-04-27T22:02:14.352Z,50.51
2023-04-27T22:04:41.518Z,50.50
2023-04-27T22:07:09.169Z,50.74
2023-04-27T22:09:36.078Z,50.73
2023-04-27T22:12:03.513Z,50.65
2023-04-27T22:14:31.486Z,50.90
2023-04-27T22:17:01.036Z,50.87
2023-04-27T22:19:28.929Z,50.88
2023-04-27T22:21:56.109Z,51.19
2023-04-27T22:24:23.950Z,51.11
2023-04-27T22:26:51.111Z,51.35
2023-04-27T22:29:18.247Z,51.40
2023-04-27T22:31:45.888Z,51.35
2023-04-27T22:34:13.528Z,51.51
2023-04-27T22:36:41.427Z,51.49
2023-04-27T22:39:09.059Z,51.70
2023-04-27T22:41:36.252Z,51.89
2023-04-27T22:44:03.230Z,51.90
2023-04-27T22:46:30.236Z,52.04
2023-04-27T22:48:58.702Z,52.03
2023-04-27T22:51:27.662Z,52.25
2023-04-27T22:53:54.940Z,52.19
2023-04-27T22:56:22.648Z,52.38
2023-04-27T22:58:49.915Z,52.28
2023-04-27T23:01:17.050Z,52.48
2023-04-27T23:03:44.382Z,52.63
2023-04-27T23:06:15.010Z,53.07
2023-04-27T23:08:44.019Z,52.85
2023-04-27T23:11:13.941Z,52.87
2023-04-27T23:13:41.108Z,52.89
2023-04-27T23:16:10.122Z,53.27
2023-04-27T23:18:37.290Z,53.25
2023-04-27T23:21:04.380Z,53.46
2023-04-27T23:23:31.560Z,53.35
2023-04-27T23:25:58.609Z,53.59
2023-04-27T23:28:25.945Z,53.68
2023-04-27T23:30:54.756Z,53.81
2023-04-27T23:33:22.376Z,53.90
2023-04-27T23:35:49.446Z,53.63
2023-04-27T23:38:16.593Z,53.95
2023-04-27T23:40:43.613Z,53.79
2023-04-27T23:43:10.691Z,54.39
2023-04-27T23:45:37.780Z,54.43
2023-04-27T23:48:05.257Z,54.41
2023-04-27T23:50:33.082Z,54.38
2023-04-27T23:53:00.028Z,54.62
2023-04-27T23:55:26.984Z,54.78
2023-04-27T23:57:54.048Z,55.15
